logo
Rechercher aéroport 
image banner adimage banner adimage banner ad
image banner ad

KNLC - Lemoore Nas (Reeves Fld)

Situé à Lemoore, United States

ICAO - NLC, IATA -

Données fournies par Airmate  

Information générale

Coordonnées: N36°19'59" W119°57'8"
Élévation : 228 feet MSL.
Variation magnétique : 14° East
Voir autres Aéroports à California

Données opérationnelles

Special qualification required
Heure actuelle UTC:
Heure actuelle locale:
Météo
METAR: KNLC 281256Z AUTO 26006KT 10SM CLR 16/08 A2997 RMK AO2 SLP147 T01610083
TAF: TAF KNLC 2807/2907 32008KT 9999 FEW200 QNH2987INS FM290200 35010KT 9999 FEW250 QNH2990INS AUTOMATED SENSOR METWATCH 2807 TIL 2815 T16/2812Z T34/2823Z FS30189
Voir NOTAMs / SUP AIP / TFR affectant cet aéroport [VIEW]
Fréquences de communication: [VIEW]

Pistes:

Identifiant RWYQFULongueur (ft)Largeur (ft)SurfaceLDA (ft)
14R156°13501200CONC
32L336°13501200CONC
14L156°13502200CONC
32R336°13502200CONC

Coordonnées de l'aéroport

Adresse: Lemoore United States

Vue satellite de KNLC